Lawrenceville, New York
Current Conditions -  °F | °C
As of 1:53 AM on Thursday 18 Dec 2014 (Local Time) from KMSS Reporting Station
Light Snow Light Snow  
Wind Chill: 27°   Ceiling: 800
Heat Index: 34°   Visibility: 7mi
Dew Point: 31°   Wind: 9mph
Humidity: 89%   Direction: 250°WSW
Pressure: 29.81"   Gusts: NA
Location:  44.77°N, 74.65°W
Report Text: KMSS 180653Z AUTO 25008KT 7SM -SN BKN008 OVC012 01/M01 A2981 RMK AO2 SLP098 P0001 T00111006
Loading
Personal Weather Stations






























Interactive Weather Map New forecast layout! Learn more

10-Day Weather Forecast

Advertisements
Track Severe Weather on mobile